sensor_id;sensor_type;location;lat;lon;timestamp;P1;durP1;ratioP1;P2;durP2;ratioP2
4323;SDS011;2175;51.018;6.994;2023-05-21T00:00:30;25.20;;;15.47;;
4323;SDS011;2175;51.018;6.994;2023-05-21T00:02:55;19.47;;;14.50;;
4323;SDS011;2175;51.018;6.994;2023-05-21T00:05:22;23.83;;;15.33;;
4323;SDS011;2175;51.018;6.994;2023-05-21T00:07:48;19.90;;;14.33;;
4323;SDS011;2175;51.018;6.994;2023-05-21T00:10:17;20.30;;;15.07;;
4323;SDS011;2175;51.018;6.994;2023-05-21T00:12:43;21.50;;;14.27;;
4323;SDS011;2175;51.018;6.994;2023-05-21T00:15:08;21.97;;;15.00;;
4323;SDS011;2175;51.018;6.994;2023-05-21T00:17:34;23.70;;;15.20;;
4323;SDS011;2175;51.018;6.994;2023-05-21T00:20:02;19.97;;;15.87;;
4323;SDS011;2175;51.018;6.994;2023-05-21T00:22:32;22.20;;;15.50;;
4323;SDS011;2175;51.018;6.994;2023-05-21T00:25:00;20.80;;;15.30;;
4323;SDS011;2175;51.018;6.994;2023-05-21T00:27:26;21.30;;;15.80;;
4323;SDS011;2175;51.018;6.994;2023-05-21T00:29:51;21.30;;;15.30;;
4323;SDS011;2175;51.018;6.994;2023-05-21T00:32:17;24.83;;;16.30;;
4323;SDS011;2175;51.018;6.994;2023-05-21T00:34:42;21.03;;;15.70;;
4323;SDS011;2175;51.018;6.994;2023-05-21T00:37:08;18.13;;;14.43;;
4323;SDS011;2175;51.018;6.994;2023-05-21T00:39:34;26.27;;;15.30;;
4323;SDS011;2175;51.018;6.994;2023-05-21T00:42:00;24.30;;;15.50;;
4323;SDS011;2175;51.018;6.994;2023-05-21T00:44:28;19.10;;;15.20;;
4323;SDS011;2175;51.018;6.994;2023-05-21T00:46:58;22.00;;;14.33;;
4323;SDS011;2175;51.018;6.994;2023-05-21T00:49:26;20.83;;;15.27;;
4323;SDS011;2175;51.018;6.994;2023-05-21T00:51:52;22.37;;;14.87;;
4323;SDS011;2175;51.018;6.994;2023-05-21T00:54:18;18.87;;;14.83;;
4323;SDS011;2175;51.018;6.994;2023-05-21T00:56:45;19.40;;;14.43;;
4323;SDS011;2175;51.018;6.994;2023-05-21T00:59:11;20.60;;;14.80;;
4323;SDS011;2175;51.018;6.994;2023-05-21T01:01:39;21.20;;;15.40;;
4323;SDS011;2175;51.018;6.994;2023-05-21T01:04:07;22.20;;;15.13;;
4323;SDS011;2175;51.018;6.994;2023-05-21T01:06:33;19.00;;;14.43;;
4323;SDS011;2175;51.018;6.994;2023-05-21T01:08:59;19.53;;;15.33;;
4323;SDS011;2175;51.018;6.994;2023-05-21T01:11:48;18.90;;;14.40;;
4323;SDS011;2175;51.018;6.994;2023-05-21T01:14:14;21.40;;;14.83;;
4323;SDS011;2175;51.018;6.994;2023-05-21T01:16:41;21.93;;;14.07;;
4323;SDS011;2175;51.018;6.994;2023-05-21T01:19:12;20.70;;;14.40;;
4323;SDS011;2175;51.018;6.994;2023-05-21T01:21:41;23.63;;;15.23;;
4323;SDS011;2175;51.018;6.994;2023-05-21T01:24:10;23.40;;;14.70;;
4323;SDS011;2175;51.018;6.994;2023-05-21T01:26:35;21.70;;;15.37;;
4323;SDS011;2175;51.018;6.994;2023-05-21T01:29:05;19.10;;;14.00;;
4323;SDS011;2175;51.018;6.994;2023-05-21T01:31:40;20.57;;;15.43;;
4323;SDS011;2175;51.018;6.994;2023-05-21T01:34:21;21.20;;;14.33;;
4323;SDS011;2175;51.018;6.994;2023-05-21T01:36:54;19.77;;;13.63;;
4323;SDS011;2175;51.018;6.994;2023-05-21T01:39:28;21.60;;;14.97;;
4323;SDS011;2175;51.018;6.994;2023-05-21T01:41:58;19.03;;;15.30;;
4323;SDS011;2175;51.018;6.994;2023-05-21T01:44:27;19.90;;;15.40;;
4323;SDS011;2175;51.018;6.994;2023-05-21T01:46:53;20.73;;;15.50;;
4323;SDS011;2175;51.018;6.994;2023-05-21T01:49:20;20.40;;;15.37;;
4323;SDS011;2175;51.018;6.994;2023-05-21T01:51:47;19.67;;;14.17;;
4323;SDS011;2175;51.018;6.994;2023-05-21T01:54:13;18.07;;;13.10;;
4323;SDS011;2175;51.018;6.994;2023-05-21T01:56:39;18.20;;;14.17;;
4323;SDS011;2175;51.018;6.994;2023-05-21T01:59:05;19.67;;;13.20;;
4323;SDS011;2175;51.018;6.994;2023-05-21T02:01:31;19.43;;;13.40;;
4323;SDS011;2175;51.018;6.994;2023-05-21T02:03:56;18.93;;;14.43;;
4323;SDS011;2175;51.018;6.994;2023-05-21T02:06:22;21.93;;;15.07;;
4323;SDS011;2175;51.018;6.994;2023-05-21T02:08:48;23.17;;;14.40;;
4323;SDS011;2175;51.018;6.994;2023-05-21T02:11:14;21.93;;;14.63;;
4323;SDS011;2175;51.018;6.994;2023-05-21T02:13:40;19.13;;;14.13;;
4323;SDS011;2175;51.018;6.994;2023-05-21T02:16:07;20.60;;;14.43;;
4323;SDS011;2175;51.018;6.994;2023-05-21T02:18:36;17.73;;;13.77;;
4323;SDS011;2175;51.018;6.994;2023-05-21T02:21:02;17.27;;;13.53;;
4323;SDS011;2175;51.018;6.994;2023-05-21T02:23:27;17.63;;;12.93;;
4323;SDS011;2175;51.018;6.994;2023-05-21T02:25:53;18.37;;;12.50;;
4323;SDS011;2175;51.018;6.994;2023-05-21T02:28:19;19.07;;;12.43;;
4323;SDS011;2175;51.018;6.994;2023-05-21T02:30:45;20.40;;;12.83;;
4323;SDS011;2175;51.018;6.994;2023-05-21T02:33:10;17.77;;;12.70;;
4323;SDS011;2175;51.018;6.994;2023-05-21T02:35:38;18.70;;;12.63;;
4323;SDS011;2175;51.018;6.994;2023-05-21T02:38:04;16.17;;;12.50;;
4323;SDS011;2175;51.018;6.994;2023-05-21T02:40:29;14.27;;;12.13;;
4323;SDS011;2175;51.018;6.994;2023-05-21T02:42:56;16.30;;;12.53;;
4323;SDS011;2175;51.018;6.994;2023-05-21T02:45:22;20.33;;;12.23;;
4323;SDS011;2175;51.018;6.994;2023-05-21T02:47:47;14.87;;;11.13;;
4323;SDS011;2175;51.018;6.994;2023-05-21T02:50:13;15.60;;;11.90;;
4323;SDS011;2175;51.018;6.994;2023-05-21T02:52:39;15.60;;;12.07;;
4323;SDS011;2175;51.018;6.994;2023-05-21T02:55:05;16.33;;;11.70;;
4323;SDS011;2175;51.018;6.994;2023-05-21T02:57:31;15.23;;;11.70;;
4323;SDS011;2175;51.018;6.994;2023-05-21T02:59:57;15.17;;;11.97;;
4323;SDS011;2175;51.018;6.994;2023-05-21T03:02:22;17.20;;;12.50;;
4323;SDS011;2175;51.018;6.994;2023-05-21T03:04:48;18.20;;;12.73;;
4323;SDS011;2175;51.018;6.994;2023-05-21T03:07:15;15.33;;;12.67;;
4323;SDS011;2175;51.018;6.994;2023-05-21T03:09:45;17.93;;;12.00;;
4323;SDS011;2175;51.018;6.994;2023-05-21T03:12:11;18.50;;;12.80;;
4323;SDS011;2175;51.018;6.994;2023-05-21T03:14:36;17.70;;;13.20;;
4323;SDS011;2175;51.018;6.994;2023-05-21T03:17:02;16.97;;;12.40;;
4323;SDS011;2175;51.018;6.994;2023-05-21T03:19:32;16.60;;;13.00;;
4323;SDS011;2175;51.018;6.994;2023-05-21T03:22:01;16.50;;;12.87;;
4323;SDS011;2175;51.018;6.994;2023-05-21T03:24:28;19.53;;;13.30;;
4323;SDS011;2175;51.018;6.994;2023-05-21T03:26:57;18.50;;;12.60;;
4323;SDS011;2175;51.018;6.994;2023-05-21T03:29:25;16.10;;;12.77;;
4323;SDS011;2175;51.018;6.994;2023-05-21T03:31:51;16.30;;;12.00;;
4323;SDS011;2175;51.018;6.994;2023-05-21T03:34:20;18.37;;;12.67;;
4323;SDS011;2175;51.018;6.994;2023-05-21T03:36:46;22.73;;;12.67;;
4323;SDS011;2175;51.018;6.994;2023-05-21T03:39:12;15.03;;;11.93;;
4323;SDS011;2175;51.018;6.994;2023-05-21T03:41:37;18.00;;;13.17;;
4323;SDS011;2175;51.018;6.994;2023-05-21T03:44:03;16.60;;;12.37;;
4323;SDS011;2175;51.018;6.994;2023-05-21T03:46:32;15.73;;;12.20;;
4323;SDS011;2175;51.018;6.994;2023-05-21T03:48:57;17.60;;;13.03;;
4323;SDS011;2175;51.018;6.994;2023-05-21T03:51:23;17.73;;;13.40;;
4323;SDS011;2175;51.018;6.994;2023-05-21T03:53:50;18.03;;;13.10;;
4323;SDS011;2175;51.018;6.994;2023-05-21T03:56:15;16.57;;;13.10;;
4323;SDS011;2175;51.018;6.994;2023-05-21T03:58:41;15.27;;;12.20;;
4323;SDS011;2175;51.018;6.994;2023-05-21T04:01:07;16.40;;;12.50;;
4323;SDS011;2175;51.018;6.994;2023-05-21T04:03:33;17.97;;;13.27;;
4323;SDS011;2175;51.018;6.994;2023-05-21T04:06:02;18.00;;;12.07;;
4323;SDS011;2175;51.018;6.994;2023-05-21T04:08:28;18.80;;;13.40;;
4323;SDS011;2175;51.018;6.994;2023-05-21T04:10:55;16.87;;;12.57;;
4323;SDS011;2175;51.018;6.994;2023-05-21T04:13:21;18.70;;;12.63;;
4323;SDS011;2175;51.018;6.994;2023-05-21T04:15:47;15.77;;;13.13;;
4323;SDS011;2175;51.018;6.994;2023-05-21T04:18:12;15.87;;;12.13;;
4323;SDS011;2175;51.018;6.994;2023-05-21T04:20:40;16.57;;;12.30;;
4323;SDS011;2175;51.018;6.994;2023-05-21T04:23:06;17.80;;;12.17;;
4323;SDS011;2175;51.018;6.994;2023-05-21T04:25:31;17.60;;;12.90;;
4323;SDS011;2175;51.018;6.994;2023-05-21T04:27:57;17.17;;;12.50;;
4323;SDS011;2175;51.018;6.994;2023-05-21T04:30:23;14.80;;;12.40;;
4323;SDS011;2175;51.018;6.994;2023-05-21T04:32:49;18.87;;;12.50;;
4323;SDS011;2175;51.018;6.994;2023-05-21T04:35:16;21.63;;;13.73;;
4323;SDS011;2175;51.018;6.994;2023-05-21T04:37:42;17.10;;;12.53;;
4323;SDS011;2175;51.018;6.994;2023-05-21T04:40:10;25.60;;;13.30;;
4323;SDS011;2175;51.018;6.994;2023-05-21T04:42:42;19.87;;;13.37;;
4323;SDS011;2175;51.018;6.994;2023-05-21T04:45:12;22.73;;;13.47;;
4323;SDS011;2175;51.018;6.994;2023-05-21T04:47:37;16.00;;;12.23;;
4323;SDS011;2175;51.018;6.994;2023-05-21T04:50:03;16.23;;;13.20;;
4323;SDS011;2175;51.018;6.994;2023-05-21T04:52:29;22.90;;;13.23;;
4323;SDS011;2175;51.018;6.994;2023-05-21T04:54:55;18.63;;;13.30;;
4323;SDS011;2175;51.018;6.994;2023-05-21T04:57:21;18.90;;;12.30;;
4323;SDS011;2175;51.018;6.994;2023-05-21T04:59:48;22.77;;;13.27;;
4323;SDS011;2175;51.018;6.994;2023-05-21T05:02:14;17.63;;;13.00;;
4323;SDS011;2175;51.018;6.994;2023-05-21T05:04:40;16.40;;;12.77;;
4323;SDS011;2175;51.018;6.994;2023-05-21T05:07:07;14.57;;;11.97;;
4323;SDS011;2175;51.018;6.994;2023-05-21T05:09:33;17.00;;;12.43;;
4323;SDS011;2175;51.018;6.994;2023-05-21T05:11:59;19.60;;;13.30;;
4323;SDS011;2175;51.018;6.994;2023-05-21T05:14:25;20.10;;;13.70;;
4323;SDS011;2175;51.018;6.994;2023-05-21T05:16:51;19.90;;;12.70;;
4323;SDS011;2175;51.018;6.994;2023-05-21T05:19:18;15.63;;;11.93;;
4323;SDS011;2175;51.018;6.994;2023-05-21T05:21:44;17.27;;;12.13;;
4323;SDS011;2175;51.018;6.994;2023-05-21T05:24:09;18.70;;;11.97;;
4323;SDS011;2175;51.018;6.994;2023-05-21T05:26:35;13.40;;;11.60;;
4323;SDS011;2175;51.018;6.994;2023-05-21T05:29:01;14.60;;;10.90;;
4323;SDS011;2175;51.018;6.994;2023-05-21T05:31:26;16.17;;;12.87;;
4323;SDS011;2175;51.018;6.994;2023-05-21T05:33:52;15.03;;;11.50;;
4323;SDS011;2175;51.018;6.994;2023-05-21T05:36:17;14.70;;;12.30;;
4323;SDS011;2175;51.018;6.994;2023-05-21T05:38:43;18.77;;;13.67;;
4323;SDS011;2175;51.018;6.994;2023-05-21T05:41:08;19.53;;;13.70;;
4323;SDS011;2175;51.018;6.994;2023-05-21T05:43:34;19.73;;;12.43;;
4323;SDS011;2175;51.018;6.994;2023-05-21T05:46:00;19.50;;;13.10;;
4323;SDS011;2175;51.018;6.994;2023-05-21T05:48:25;18.60;;;13.33;;
4323;SDS011;2175;51.018;6.994;2023-05-21T05:50:51;15.80;;;12.60;;
4323;SDS011;2175;51.018;6.994;2023-05-21T05:53:19;17.40;;;13.17;;
4323;SDS011;2175;51.018;6.994;2023-05-21T05:55:44;15.93;;;12.67;;
4323;SDS011;2175;51.018;6.994;2023-05-21T05:58:10;18.40;;;12.20;;
4323;SDS011;2175;51.018;6.994;2023-05-21T06:00:36;15.90;;;12.00;;
4323;SDS011;2175;51.018;6.994;2023-05-21T06:03:02;19.63;;;13.50;;
4323;SDS011;2175;51.018;6.994;2023-05-21T06:05:27;17.73;;;12.80;;
4323;SDS011;2175;51.018;6.994;2023-05-21T06:07:53;17.60;;;12.13;;
4323;SDS011;2175;51.018;6.994;2023-05-21T06:10:19;21.03;;;13.50;;
4323;SDS011;2175;51.018;6.994;2023-05-21T06:12:44;21.40;;;11.67;;
4323;SDS011;2175;51.018;6.994;2023-05-21T06:15:10;20.73;;;12.27;;
4323;SDS011;2175;51.018;6.994;2023-05-21T06:17:36;16.70;;;12.43;;
4323;SDS011;2175;51.018;6.994;2023-05-21T06:20:01;18.03;;;12.57;;
4323;SDS011;2175;51.018;6.994;2023-05-21T06:22:28;19.07;;;13.33;;
4323;SDS011;2175;51.018;6.994;2023-05-21T06:24:53;16.60;;;12.53;;
4323;SDS011;2175;51.018;6.994;2023-05-21T06:27:19;23.23;;;13.33;;
4323;SDS011;2175;51.018;6.994;2023-05-21T06:29:44;18.13;;;13.00;;
4323;SDS011;2175;51.018;6.994;2023-05-21T06:32:10;20.73;;;12.80;;
4323;SDS011;2175;51.018;6.994;2023-05-21T06:34:36;25.87;;;12.73;;
4323;SDS011;2175;51.018;6.994;2023-05-21T06:37:01;17.80;;;12.47;;
4323;SDS011;2175;51.018;6.994;2023-05-21T06:39:27;15.30;;;12.43;;
4323;SDS011;2175;51.018;6.994;2023-05-21T06:41:52;17.83;;;12.87;;
4323;SDS011;2175;51.018;6.994;2023-05-21T06:44:18;22.63;;;12.83;;
4323;SDS011;2175;51.018;6.994;2023-05-21T06:46:44;19.40;;;12.70;;
4323;SDS011;2175;51.018;6.994;2023-05-21T06:49:10;22.00;;;12.80;;
4323;SDS011;2175;51.018;6.994;2023-05-21T06:51:37;20.43;;;13.10;;
4323;SDS011;2175;51.018;6.994;2023-05-21T06:54:03;20.30;;;13.37;;
4323;SDS011;2175;51.018;6.994;2023-05-21T06:56:28;13.53;;;11.00;;
4323;SDS011;2175;51.018;6.994;2023-05-21T06:58:54;17.03;;;12.40;;
4323;SDS011;2175;51.018;6.994;2023-05-21T07:01:20;20.73;;;13.63;;
4323;SDS011;2175;51.018;6.994;2023-05-21T07:03:50;17.00;;;12.80;;
4323;SDS011;2175;51.018;6.994;2023-05-21T07:06:15;19.00;;;13.10;;
4323;SDS011;2175;51.018;6.994;2023-05-21T07:08:41;21.40;;;12.20;;
4323;SDS011;2175;51.018;6.994;2023-05-21T07:11:07;21.90;;;14.80;;
4323;SDS011;2175;51.018;6.994;2023-05-21T07:13:33;18.40;;;12.93;;
4323;SDS011;2175;51.018;6.994;2023-05-21T07:16:00;16.43;;;12.77;;
4323;SDS011;2175;51.018;6.994;2023-05-21T07:18:26;17.33;;;13.50;;
4323;SDS011;2175;51.018;6.994;2023-05-21T07:20:51;21.53;;;13.30;;
4323;SDS011;2175;51.018;6.994;2023-05-21T07:23:17;16.93;;;12.87;;
4323;SDS011;2175;51.018;6.994;2023-05-21T07:25:43;20.00;;;13.67;;
4323;SDS011;2175;51.018;6.994;2023-05-21T07:28:09;17.63;;;12.33;;
4323;SDS011;2175;51.018;6.994;2023-05-21T07:30:34;15.03;;;11.70;;
4323;SDS011;2175;51.018;6.994;2023-05-21T07:33:00;13.10;;;11.30;;
4323;SDS011;2175;51.018;6.994;2023-05-21T07:35:25;14.10;;;12.13;;
4323;SDS011;2175;51.018;6.994;2023-05-21T07:37:51;17.07;;;12.43;;
4323;SDS011;2175;51.018;6.994;2023-05-21T07:40:17;17.67;;;11.67;;
4323;SDS011;2175;51.018;6.994;2023-05-21T07:42:42;15.00;;;12.13;;
4323;SDS011;2175;51.018;6.994;2023-05-21T07:45:08;15.63;;;12.47;;
4323;SDS011;2175;51.018;6.994;2023-05-21T07:47:34;19.83;;;14.17;;
4323;SDS011;2175;51.018;6.994;2023-05-21T07:49:59;20.13;;;12.80;;
4323;SDS011;2175;51.018;6.994;2023-05-21T07:52:25;15.37;;;11.77;;
4323;SDS011;2175;51.018;6.994;2023-05-21T07:54:50;16.67;;;12.90;;
4323;SDS011;2175;51.018;6.994;2023-05-21T07:57:16;18.53;;;14.27;;
4323;SDS011;2175;51.018;6.994;2023-05-21T07:59:42;16.90;;;12.17;;
4323;SDS011;2175;51.018;6.994;2023-05-21T08:02:07;17.10;;;12.50;;
4323;SDS011;2175;51.018;6.994;2023-05-21T08:04:33;16.23;;;12.00;;
4323;SDS011;2175;51.018;6.994;2023-05-21T08:06:58;14.57;;;11.20;;
4323;SDS011;2175;51.018;6.994;2023-05-21T08:09:24;14.63;;;10.80;;
4323;SDS011;2175;51.018;6.994;2023-05-21T08:11:50;18.77;;;12.63;;
4323;SDS011;2175;51.018;6.994;2023-05-21T08:14:15;16.67;;;12.50;;
4323;SDS011;2175;51.018;6.994;2023-05-21T08:16:41;13.33;;;11.83;;
4323;SDS011;2175;51.018;6.994;2023-05-21T08:19:07;15.77;;;12.40;;
4323;SDS011;2175;51.018;6.994;2023-05-21T08:21:33;18.93;;;14.50;;
4323;SDS011;2175;51.018;6.994;2023-05-21T08:23:58;21.00;;;15.17;;
4323;SDS011;2175;51.018;6.994;2023-05-21T08:26:24;19.30;;;12.67;;
4323;SDS011;2175;51.018;6.994;2023-05-21T08:28:53;16.77;;;12.77;;
4323;SDS011;2175;51.018;6.994;2023-05-21T08:31:19;16.77;;;12.20;;
4323;SDS011;2175;51.018;6.994;2023-05-21T08:33:52;15.87;;;11.70;;
4323;SDS011;2175;51.018;6.994;2023-05-21T08:36:18;15.10;;;11.30;;
4323;SDS011;2175;51.018;6.994;2023-05-21T08:38:44;12.17;;;10.13;;
4323;SDS011;2175;51.018;6.994;2023-05-21T08:41:10;12.80;;;10.90;;
4323;SDS011;2175;51.018;6.994;2023-05-21T08:43:36;14.90;;;11.77;;
4323;SDS011;2175;51.018;6.994;2023-05-21T08:46:05;18.80;;;13.27;;
4323;SDS011;2175;51.018;6.994;2023-05-21T08:48:31;19.27;;;13.07;;
4323;SDS011;2175;51.018;6.994;2023-05-21T08:50:58;18.30;;;12.17;;
4323;SDS011;2175;51.018;6.994;2023-05-21T08:53:27;12.27;;;10.50;;
4323;SDS011;2175;51.018;6.994;2023-05-21T08:55:53;13.13;;;10.87;;
4323;SDS011;2175;51.018;6.994;2023-05-21T08:58:20;18.63;;;12.70;;
4323;SDS011;2175;51.018;6.994;2023-05-21T09:00:46;17.97;;;11.97;;
4323;SDS011;2175;51.018;6.994;2023-05-21T09:03:11;15.53;;;12.53;;
4323;SDS011;2175;51.018;6.994;2023-05-21T09:05:41;13.27;;;10.80;;
4323;SDS011;2175;51.018;6.994;2023-05-21T09:08:18;12.70;;;11.33;;
4323;SDS011;2175;51.018;6.994;2023-05-21T09:10:50;12.70;;;10.30;;
4323;SDS011;2175;51.018;6.994;2023-05-21T09:13:17;12.17;;;10.57;;
4323;SDS011;2175;51.018;6.994;2023-05-21T09:15:44;10.50;;;9.17;;
4323;SDS011;2175;51.018;6.994;2023-05-21T09:18:11;14.40;;;11.60;;
4323;SDS011;2175;51.018;6.994;2023-05-21T09:20:39;12.87;;;11.47;;
4323;SDS011;2175;51.018;6.994;2023-05-21T09:23:06;11.87;;;9.60;;
4323;SDS011;2175;51.018;6.994;2023-05-21T09:25:45;14.60;;;9.67;;
4323;SDS011;2175;51.018;6.994;2023-05-21T09:28:13;16.10;;;8.93;;
4323;SDS011;2175;51.018;6.994;2023-05-21T09:30:46;12.23;;;9.50;;
4323;SDS011;2175;51.018;6.994;2023-05-21T09:33:16;13.47;;;9.67;;
4323;SDS011;2175;51.018;6.994;2023-05-21T09:35:54;13.00;;;10.10;;
4323;SDS011;2175;51.018;6.994;2023-05-21T09:38:20;15.43;;;10.80;;
4323;SDS011;2175;51.018;6.994;2023-05-21T09:40:47;12.13;;;9.33;;
4323;SDS011;2175;51.018;6.994;2023-05-21T09:43:13;13.23;;;10.20;;
4323;SDS011;2175;51.018;6.994;2023-05-21T09:45:56;14.13;;;12.20;;
4323;SDS011;2175;51.018;6.994;2023-05-21T09:48:35;14.10;;;12.67;;
4323;SDS011;2175;51.018;6.994;2023-05-21T09:51:10;14.53;;;10.93;;
4323;SDS011;2175;51.018;6.994;2023-05-21T09:53:45;15.50;;;12.23;;
4323;SDS011;2175;51.018;6.994;2023-05-21T09:56:12;12.63;;;10.80;;
4323;SDS011;2175;51.018;6.994;2023-05-21T09:58:38;13.70;;;10.93;;
4323;SDS011;2175;51.018;6.994;2023-05-21T10:01:05;15.60;;;12.10;;
4323;SDS011;2175;51.018;6.994;2023-05-21T10:03:31;19.63;;;12.63;;
4323;SDS011;2175;51.018;6.994;2023-05-21T10:06:01;14.70;;;11.33;;
4323;SDS011;2175;51.018;6.994;2023-05-21T10:08:27;15.83;;;11.77;;
4323;SDS011;2175;51.018;6.994;2023-05-21T10:10:58;20.80;;;11.50;;
4323;SDS011;2175;51.018;6.994;2023-05-21T10:13:24;11.90;;;10.70;;
4323;SDS011;2175;51.018;6.994;2023-05-21T10:15:57;12.50;;;10.70;;
4323;SDS011;2175;51.018;6.994;2023-05-21T10:18:26;13.13;;;10.77;;
4323;SDS011;2175;51.018;6.994;2023-05-21T10:20:54;12.70;;;10.97;;
4323;SDS011;2175;51.018;6.994;2023-05-21T10:23:22;13.83;;;12.20;;
4323;SDS011;2175;51.018;6.994;2023-05-21T10:25:48;14.57;;;11.33;;
4323;SDS011;2175;51.018;6.994;2023-05-21T10:28:15;14.57;;;10.63;;
4323;SDS011;2175;51.018;6.994;2023-05-21T10:30:43;12.43;;;11.10;;
4323;SDS011;2175;51.018;6.994;2023-05-21T10:33:10;12.87;;;10.60;;
4323;SDS011;2175;51.018;6.994;2023-05-21T10:35:40;13.90;;;11.40;;
4323;SDS011;2175;51.018;6.994;2023-05-21T10:38:08;13.60;;;10.93;;
4323;SDS011;2175;51.018;6.994;2023-05-21T10:40:33;17.70;;;10.77;;
4323;SDS011;2175;51.018;6.994;2023-05-21T10:43:24;15.50;;;12.77;;
4323;SDS011;2175;51.018;6.994;2023-05-21T11:00:12;15.30;;;11.10;;
4323;SDS011;2175;51.018;6.994;2023-05-21T11:02:42;15.13;;;11.33;;
4323;SDS011;2175;51.018;6.994;2023-05-21T11:05:09;18.80;;;12.50;;
4323;SDS011;2175;51.018;6.994;2023-05-21T11:07:51;15.43;;;11.93;;
4323;SDS011;2175;51.018;6.994;2023-05-21T11:10:36;16.70;;;11.37;;
4323;SDS011;2175;51.018;6.994;2023-05-21T11:13:15;15.37;;;12.57;;
4323;SDS011;2175;51.018;6.994;2023-05-21T11:19:06;17.03;;;12.30;;
4323;SDS011;2175;51.018;6.994;2023-05-21T11:21:11;15.23;;;11.60;;
4323;SDS011;2175;51.018;6.994;2023-05-21T11:26:21;14.60;;;11.80;;
4323;SDS011;2175;51.018;6.994;2023-05-21T11:31:28;13.83;;;11.10;;
4323;SDS011;2175;51.018;6.994;2023-05-21T11:34:21;16.20;;;11.50;;
4323;SDS011;2175;51.018;6.994;2023-05-21T11:39:41;15.10;;;11.20;;
4323;SDS011;2175;51.018;6.994;2023-05-21T11:42:08;13.00;;;11.40;;
4323;SDS011;2175;51.018;6.994;2023-05-21T11:44:40;12.93;;;11.57;;
4323;SDS011;2175;51.018;6.994;2023-05-21T11:47:06;15.63;;;11.60;;
4323;SDS011;2175;51.018;6.994;2023-05-21T11:49:33;17.67;;;12.60;;
4323;SDS011;2175;51.018;6.994;2023-05-21T11:52:01;14.80;;;11.73;;
4323;SDS011;2175;51.018;6.994;2023-05-21T11:54:28;12.70;;;11.23;;
4323;SDS011;2175;51.018;6.994;2023-05-21T11:56:58;13.90;;;11.30;;
4323;SDS011;2175;51.018;6.994;2023-05-21T11:59:24;14.00;;;12.30;;
4323;SDS011;2175;51.018;6.994;2023-05-21T12:01:50;13.17;;;11.77;;
4323;SDS011;2175;51.018;6.994;2023-05-21T12:04:16;12.80;;;11.43;;
4323;SDS011;2175;51.018;6.994;2023-05-21T12:06:41;16.73;;;12.10;;
4323;SDS011;2175;51.018;6.994;2023-05-21T12:09:10;14.13;;;10.80;;
4323;SDS011;2175;51.018;6.994;2023-05-21T12:11:40;13.73;;;11.97;;
4323;SDS011;2175;51.018;6.994;2023-05-21T12:14:09;13.23;;;10.90;;
4323;SDS011;2175;51.018;6.994;2023-05-21T12:16:35;14.10;;;12.03;;
4323;SDS011;2175;51.018;6.994;2023-05-21T12:19:05;13.67;;;11.53;;
4323;SDS011;2175;51.018;6.994;2023-05-21T12:21:34;13.50;;;12.10;;
4323;SDS011;2175;51.018;6.994;2023-05-21T12:24:00;15.33;;;12.17;;
4323;SDS011;2175;51.018;6.994;2023-05-21T12:26:26;11.57;;;10.37;;
4323;SDS011;2175;51.018;6.994;2023-05-21T12:28:53;12.23;;;10.97;;
4323;SDS011;2175;51.018;6.994;2023-05-21T12:31:20;13.67;;;12.17;;
4323;SDS011;2175;51.018;6.994;2023-05-21T12:33:50;13.67;;;12.00;;
4323;SDS011;2175;51.018;6.994;2023-05-21T12:36:29;14.90;;;12.50;;
4323;SDS011;2175;51.018;6.994;2023-05-21T12:38:58;13.07;;;11.20;;
4323;SDS011;2175;51.018;6.994;2023-05-21T12:41:24;14.40;;;12.20;;
4323;SDS011;2175;51.018;6.994;2023-05-21T12:43:50;18.07;;;12.40;;
4323;SDS011;2175;51.018;6.994;2023-05-21T12:46:16;14.10;;;11.80;;
4323;SDS011;2175;51.018;6.994;2023-05-21T12:48:49;14.47;;;11.90;;
4323;SDS011;2175;51.018;6.994;2023-05-21T12:51:18;12.80;;;11.50;;
4323;SDS011;2175;51.018;6.994;2023-05-21T12:53:45;14.60;;;12.00;;
4323;SDS011;2175;51.018;6.994;2023-05-21T12:56:10;12.93;;;11.10;;
4323;SDS011;2175;51.018;6.994;2023-05-21T12:58:37;13.47;;;12.10;;
4323;SDS011;2175;51.018;6.994;2023-05-21T13:01:04;15.50;;;12.17;;
4323;SDS011;2175;51.018;6.994;2023-05-21T13:03:36;15.40;;;13.07;;
4323;SDS011;2175;51.018;6.994;2023-05-21T13:06:04;17.13;;;11.87;;
4323;SDS011;2175;51.018;6.994;2023-05-21T13:08:31;14.03;;;12.23;;
4323;SDS011;2175;51.018;6.994;2023-05-21T13:11:00;16.03;;;12.20;;
4323;SDS011;2175;51.018;6.994;2023-05-21T13:13:28;15.27;;;11.83;;
4323;SDS011;2175;51.018;6.994;2023-05-21T13:15:54;18.23;;;12.53;;
4323;SDS011;2175;51.018;6.994;2023-05-21T13:18:20;13.33;;;11.77;;
4323;SDS011;2175;51.018;6.994;2023-05-21T13:20:46;12.47;;;11.17;;
4323;SDS011;2175;51.018;6.994;2023-05-21T13:23:13;15.80;;;11.77;;
4323;SDS011;2175;51.018;6.994;2023-05-21T13:25:39;13.87;;;12.20;;
4323;SDS011;2175;51.018;6.994;2023-05-21T13:28:05;13.67;;;12.23;;
4323;SDS011;2175;51.018;6.994;2023-05-21T13:30:32;15.27;;;13.10;;
4323;SDS011;2175;51.018;6.994;2023-05-21T13:32:58;15.20;;;12.47;;
4323;SDS011;2175;51.018;6.994;2023-05-21T13:35:23;13.33;;;11.93;;
4323;SDS011;2175;51.018;6.994;2023-05-21T13:37:49;13.23;;;11.13;;
4323;SDS011;2175;51.018;6.994;2023-05-21T13:40:18;14.97;;;11.50;;
4323;SDS011;2175;51.018;6.994;2023-05-21T13:43:42;13.60;;;11.70;;
4323;SDS011;2175;51.018;6.994;2023-05-21T13:46:09;17.67;;;11.53;;
4323;SDS011;2175;51.018;6.994;2023-05-21T13:48:40;14.70;;;11.27;;
4323;SDS011;2175;51.018;6.994;2023-05-21T13:51:07;14.77;;;12.50;;
4323;SDS011;2175;51.018;6.994;2023-05-21T13:53:33;14.60;;;11.90;;
4323;SDS011;2175;51.018;6.994;2023-05-21T13:55:59;13.00;;;11.60;;
4323;SDS011;2175;51.018;6.994;2023-05-21T13:58:25;15.77;;;11.80;;
4323;SDS011;2175;51.018;6.994;2023-05-21T14:00:51;12.67;;;11.30;;
4323;SDS011;2175;51.018;6.994;2023-05-21T14:03:19;12.80;;;10.93;;
4323;SDS011;2175;51.018;6.994;2023-05-21T14:05:45;12.23;;;10.93;;
4323;SDS011;2175;51.018;6.994;2023-05-21T14:08:12;11.63;;;10.40;;
4323;SDS011;2175;51.018;6.994;2023-05-21T14:10:40;16.53;;;11.67;;
4323;SDS011;2175;51.018;6.994;2023-05-21T14:13:06;28.43;;;11.07;;
4323;SDS011;2175;51.018;6.994;2023-05-21T14:15:31;18.07;;;12.20;;
4323;SDS011;2175;51.018;6.994;2023-05-21T14:17:57;14.50;;;10.90;;
4323;SDS011;2175;51.018;6.994;2023-05-21T14:20:22;18.40;;;11.87;;
4323;SDS011;2175;51.018;6.994;2023-05-21T14:22:48;13.70;;;12.30;;
4323;SDS011;2175;51.018;6.994;2023-05-21T14:25:13;13.00;;;11.60;;
4323;SDS011;2175;51.018;6.994;2023-05-21T14:27:39;14.00;;;11.80;;
4323;SDS011;2175;51.018;6.994;2023-05-21T14:30:05;14.60;;;11.17;;
4323;SDS011;2175;51.018;6.994;2023-05-21T14:32:31;12.30;;;11.00;;
4323;SDS011;2175;51.018;6.994;2023-05-21T14:34:57;12.93;;;11.53;;
4323;SDS011;2175;51.018;6.994;2023-05-21T14:37:23;11.53;;;10.43;;
4323;SDS011;2175;51.018;6.994;2023-05-21T14:39:48;15.13;;;11.17;;
4323;SDS011;2175;51.018;6.994;2023-05-21T14:42:14;12.23;;;11.03;;
4323;SDS011;2175;51.018;6.994;2023-05-21T14:44:39;15.03;;;12.60;;
4323;SDS011;2175;51.018;6.994;2023-05-21T14:47:05;14.93;;;11.60;;
4323;SDS011;2175;51.018;6.994;2023-05-21T14:49:31;17.60;;;13.43;;
4323;SDS011;2175;51.018;6.994;2023-05-21T14:51:56;15.50;;;12.77;;
4323;SDS011;2175;51.018;6.994;2023-05-21T14:54:22;16.67;;;13.50;;
4323;SDS011;2175;51.018;6.994;2023-05-21T14:56:47;15.20;;;13.27;;
4323;SDS011;2175;51.018;6.994;2023-05-21T14:59:13;16.37;;;12.20;;
4323;SDS011;2175;51.018;6.994;2023-05-21T15:01:39;13.17;;;11.83;;
4323;SDS011;2175;51.018;6.994;2023-05-21T15:04:04;13.57;;;12.10;;
4323;SDS011;2175;51.018;6.994;2023-05-21T15:06:31;14.27;;;12.10;;
4323;SDS011;2175;51.018;6.994;2023-05-21T15:08:58;13.90;;;11.83;;
4323;SDS011;2175;51.018;6.994;2023-05-21T15:11:24;12.73;;;11.40;;
4323;SDS011;2175;51.018;6.994;2023-05-21T15:13:51;16.60;;;12.20;;